sensor_id;sensor_type;location;lat;lon;timestamp;P1;durP1;ratioP1;P2;durP2;ratioP2
38611;SDS011;24368;52.156;20.788;2022-09-28T00:04:46;8.60;;;7.90;;
38611;SDS011;24368;52.156;20.788;2022-09-28T00:09:49;7.70;;;7.00;;
38611;SDS011;24368;52.156;20.788;2022-09-28T00:14:51;6.30;;;5.70;;
38611;SDS011;24368;52.156;20.788;2022-09-28T00:19:55;5.80;;;5.30;;
38611;SDS011;24368;52.156;20.788;2022-09-28T00:24:59;6.10;;;5.50;;
38611;SDS011;24368;52.156;20.788;2022-09-28T00:30:09;5.60;;;5.10;;
38611;SDS011;24368;52.156;20.788;2022-09-28T00:35:11;4.60;;;3.90;;
38611;SDS011;24368;52.156;20.788;2022-09-28T00:40:27;3.90;;;3.50;;
38611;SDS011;24368;52.156;20.788;2022-09-28T00:45:35;4.60;;;4.10;;
38611;SDS011;24368;52.156;20.788;2022-09-28T00:50:50;5.70;;;4.40;;
38611;SDS011;24368;52.156;20.788;2022-09-28T00:55:58;4.30;;;3.90;;
38611;SDS011;24368;52.156;20.788;2022-09-28T01:01:21;6.20;;;5.60;;
38611;SDS011;24368;52.156;20.788;2022-09-28T01:06:27;5.00;;;4.50;;
38611;SDS011;24368;52.156;20.788;2022-09-28T01:11:39;4.50;;;4.10;;
38611;SDS011;24368;52.156;20.788;2022-09-28T01:43:50;2.90;;;2.70;;
38611;SDS011;24368;52.156;20.788;2022-09-28T01:54:13;4.10;;;3.70;;
38611;SDS011;24368;52.156;20.788;2022-09-28T01:59:40;4.20;;;3.80;;
38611;SDS011;24368;52.156;20.788;2022-09-28T02:04:57;3.90;;;3.60;;
38611;SDS011;24368;52.156;20.788;2022-09-28T02:10:40;4.00;;;3.60;;
38611;SDS011;24368;52.156;20.788;2022-09-28T02:15:58;4.00;;;3.60;;
38611;SDS011;24368;52.156;20.788;2022-09-28T02:21:27;4.60;;;4.20;;
38611;SDS011;24368;52.156;20.788;2022-09-28T02:26:40;4.70;;;4.30;;
38611;SDS011;24368;52.156;20.788;2022-09-28T02:31:50;4.40;;;4.10;;
38611;SDS011;24368;52.156;20.788;2022-09-28T02:36:52;4.30;;;4.00;;
38611;SDS011;24368;52.156;20.788;2022-09-28T02:42:07;5.10;;;4.40;;
38611;SDS011;24368;52.156;20.788;2022-09-28T02:53:16;5.50;;;5.00;;
38611;SDS011;24368;52.156;20.788;2022-09-28T03:16:05;5.90;;;5.20;;
38611;SDS011;24368;52.156;20.788;2022-09-28T03:21:24;6.00;;;5.50;;
38611;SDS011;24368;52.156;20.788;2022-09-28T03:26:31;6.60;;;6.00;;
38611;SDS011;24368;52.156;20.788;2022-09-28T03:31:42;7.80;;;7.20;;
38611;SDS011;24368;52.156;20.788;2022-09-28T03:41:54;8.50;;;7.80;;
38611;SDS011;24368;52.156;20.788;2022-09-28T03:47:05;8.30;;;7.40;;
38611;SDS011;24368;52.156;20.788;2022-09-28T03:52:11;10.00;;;9.10;;
38611;SDS011;24368;52.156;20.788;2022-09-28T03:57:18;9.30;;;8.50;;
38611;SDS011;24368;52.156;20.788;2022-09-28T04:02:20;9.60;;;8.80;;
38611;SDS011;24368;52.156;20.788;2022-09-28T04:07:23;11.30;;;10.30;;
38611;SDS011;24368;52.156;20.788;2022-09-28T04:12:31;8.20;;;7.40;;
38611;SDS011;24368;52.156;20.788;2022-09-28T04:17:36;9.40;;;8.60;;
38611;SDS011;24368;52.156;20.788;2022-09-28T04:22:42;9.40;;;8.50;;
38611;SDS011;24368;52.156;20.788;2022-09-28T04:27:51;8.10;;;7.40;;
38611;SDS011;24368;52.156;20.788;2022-09-28T04:38:36;9.10;;;8.20;;
38611;SDS011;24368;52.156;20.788;2022-09-28T04:43:50;11.30;;;10.10;;
38611;SDS011;24368;52.156;20.788;2022-09-28T04:54:29;9.50;;;8.70;;
38611;SDS011;24368;52.156;20.788;2022-09-28T04:59:36;8.30;;;7.60;;
38611;SDS011;24368;52.156;20.788;2022-09-28T05:04:38;9.00;;;8.10;;
38611;SDS011;24368;52.156;20.788;2022-09-28T05:09:39;8.30;;;7.60;;
38611;SDS011;24368;52.156;20.788;2022-09-28T05:14:42;13.80;;;12.50;;
38611;SDS011;24368;52.156;20.788;2022-09-28T05:19:45;8.20;;;7.50;;
38611;SDS011;24368;52.156;20.788;2022-09-28T05:24:46;8.40;;;7.70;;
38611;SDS011;24368;52.156;20.788;2022-09-28T05:29:49;8.60;;;7.90;;
38611;SDS011;24368;52.156;20.788;2022-09-28T05:34:54;9.20;;;8.40;;
38611;SDS011;24368;52.156;20.788;2022-09-28T05:45:02;8.30;;;7.60;;
38611;SDS011;24368;52.156;20.788;2022-09-28T05:50:05;7.80;;;7.20;;
38611;SDS011;24368;52.156;20.788;2022-09-28T05:55:09;8.20;;;7.50;;
38611;SDS011;24368;52.156;20.788;2022-09-28T06:00:15;17.80;;;15.40;;
38611;SDS011;24368;52.156;20.788;2022-09-28T06:05:28;8.10;;;7.40;;
38611;SDS011;24368;52.156;20.788;2022-09-28T06:10:37;7.50;;;6.80;;
38611;SDS011;24368;52.156;20.788;2022-09-28T06:15:42;8.10;;;7.40;;
38611;SDS011;24368;52.156;20.788;2022-09-28T06:20:55;8.60;;;7.90;;
38611;SDS011;24368;52.156;20.788;2022-09-28T06:26:05;7.80;;;7.20;;
38611;SDS011;24368;52.156;20.788;2022-09-28T06:36:12;7.80;;;7.10;;
38611;SDS011;24368;52.156;20.788;2022-09-28T06:41:26;7.50;;;6.80;;
38611;SDS011;24368;52.156;20.788;2022-09-28T06:46:31;8.70;;;8.00;;
38611;SDS011;24368;52.156;20.788;2022-09-28T06:51:36;9.40;;;8.00;;
38611;SDS011;24368;52.156;20.788;2022-09-28T06:56:45;9.20;;;8.40;;
38611;SDS011;24368;52.156;20.788;2022-09-28T07:06:59;7.50;;;6.90;;
38611;SDS011;24368;52.156;20.788;2022-09-28T07:12:02;8.10;;;7.20;;
38611;SDS011;24368;52.156;20.788;2022-09-28T07:17:15;8.40;;;7.70;;
38611;SDS011;24368;52.156;20.788;2022-09-28T07:22:24;8.20;;;7.40;;
38611;SDS011;24368;52.156;20.788;2022-09-28T07:27:37;7.60;;;7.00;;
38611;SDS011;24368;52.156;20.788;2022-09-28T07:32:45;9.80;;;9.00;;
38611;SDS011;24368;52.156;20.788;2022-09-28T07:38:01;8.20;;;7.50;;
38611;SDS011;24368;52.156;20.788;2022-09-28T07:43:07;9.00;;;7.70;;
38611;SDS011;24368;52.156;20.788;2022-09-28T07:48:11;9.50;;;8.60;;
38611;SDS011;24368;52.156;20.788;2022-09-28T07:53:24;7.20;;;6.70;;
38611;SDS011;24368;52.156;20.788;2022-09-28T07:58:37;7.30;;;6.80;;
38611;SDS011;24368;52.156;20.788;2022-09-28T08:03:44;9.30;;;8.30;;
38611;SDS011;24368;52.156;20.788;2022-09-28T08:14:16;8.40;;;7.60;;
38611;SDS011;24368;52.156;20.788;2022-09-28T08:19:32;7.30;;;6.60;;
38611;SDS011;24368;52.156;20.788;2022-09-28T08:24:58;6.90;;;6.30;;
38611;SDS011;24368;52.156;20.788;2022-09-28T08:30:08;8.30;;;7.60;;
38611;SDS011;24368;52.156;20.788;2022-09-28T08:40:34;6.80;;;6.30;;
38611;SDS011;24368;52.156;20.788;2022-09-28T08:45:47;6.10;;;5.60;;
38611;SDS011;24368;52.156;20.788;2022-09-28T08:51:01;5.90;;;5.40;;
38611;SDS011;24368;52.156;20.788;2022-09-28T09:01:31;8.60;;;7.60;;
38611;SDS011;24368;52.156;20.788;2022-09-28T09:40:00;5.80;;;4.20;;
38611;SDS011;24368;52.156;20.788;2022-09-28T09:50:50;7.80;;;7.10;;
38611;SDS011;24368;52.156;20.788;2022-09-28T09:56:03;4.70;;;4.20;;
38611;SDS011;24368;52.156;20.788;2022-09-28T10:01:35;3.50;;;3.10;;
38611;SDS011;24368;52.156;20.788;2022-09-28T10:06:43;4.20;;;2.70;;
38611;SDS011;24368;52.156;20.788;2022-09-28T10:11:48;3.30;;;3.00;;
38611;SDS011;24368;52.156;20.788;2022-09-28T10:16:54;3.50;;;2.80;;
38611;SDS011;24368;52.156;20.788;2022-09-28T10:27:57;3.00;;;2.30;;
38611;SDS011;24368;52.156;20.788;2022-09-28T10:33:05;1.90;;;1.80;;
38611;SDS011;24368;52.156;20.788;2022-09-28T10:38:34;3.20;;;1.80;;
38611;SDS011;24368;52.156;20.788;2022-09-28T10:43:52;2.00;;;1.80;;
38611;SDS011;24368;52.156;20.788;2022-09-28T10:49:15;3.10;;;2.60;;
38611;SDS011;24368;52.156;20.788;2022-09-28T10:59:38;1.90;;;1.60;;
38611;SDS011;24368;52.156;20.788;2022-09-28T11:05:18;1.90;;;1.70;;
38611;SDS011;24368;52.156;20.788;2022-09-28T11:10:25;2.10;;;1.70;;
38611;SDS011;24368;52.156;20.788;2022-09-28T11:15:29;1.70;;;1.40;;
38611;SDS011;24368;52.156;20.788;2022-09-28T11:20:36;0.90;;;0.90;;
38611;SDS011;24368;52.156;20.788;2022-09-28T11:25:53;0.80;;;0.80;;
38611;SDS011;24368;52.156;20.788;2022-09-28T11:31:12;2.20;;;1.50;;
38611;SDS011;24368;52.156;20.788;2022-09-28T11:36:27;1.60;;;1.40;;
38611;SDS011;24368;52.156;20.788;2022-09-28T11:42:07;1.20;;;1.00;;
38611;SDS011;24368;52.156;20.788;2022-09-28T11:47:36;2.70;;;1.00;;
38611;SDS011;24368;52.156;20.788;2022-09-28T11:58:47;3.00;;;1.40;;
38611;SDS011;24368;52.156;20.788;2022-09-28T12:04:18;2.30;;;1.90;;
38611;SDS011;24368;52.156;20.788;2022-09-28T12:14:59;1.30;;;1.10;;
38611;SDS011;24368;52.156;20.788;2022-09-28T12:20:16;1.30;;;1.20;;
38611;SDS011;24368;52.156;20.788;2022-09-28T12:25:24;1.50;;;1.20;;
38611;SDS011;24368;52.156;20.788;2022-09-28T12:30:34;1.50;;;1.40;;
38611;SDS011;24368;52.156;20.788;2022-09-28T13:08:29;2.00;;;1.80;;
38611;SDS011;24368;52.156;20.788;2022-09-28T13:24:51;1.70;;;1.60;;
38611;SDS011;24368;52.156;20.788;2022-09-28T13:29:57;4.60;;;1.80;;
38611;SDS011;24368;52.156;20.788;2022-09-28T13:35:15;2.30;;;2.10;;
38611;SDS011;24368;52.156;20.788;2022-09-28T13:40:34;2.10;;;2.00;;
38611;SDS011;24368;52.156;20.788;2022-09-28T13:46:19;4.20;;;2.60;;
38611;SDS011;24368;52.156;20.788;2022-09-28T13:51:29;5.50;;;4.50;;
38611;SDS011;24368;52.156;20.788;2022-09-28T14:01:55;1.80;;;1.30;;
38611;SDS011;24368;52.156;20.788;2022-09-28T14:07:20;1.20;;;1.00;;
38611;SDS011;24368;52.156;20.788;2022-09-28T14:12:47;1.10;;;1.00;;
38611;SDS011;24368;52.156;20.788;2022-09-28T14:29:15;1.90;;;0.90;;
38611;SDS011;24368;52.156;20.788;2022-09-28T14:34:25;2.10;;;1.00;;
38611;SDS011;24368;52.156;20.788;2022-09-28T14:39:38;1.20;;;0.90;;
38611;SDS011;24368;52.156;20.788;2022-09-28T14:55:28;1.40;;;1.00;;
38611;SDS011;24368;52.156;20.788;2022-09-28T15:00:40;2.00;;;1.30;;
38611;SDS011;24368;52.156;20.788;2022-09-28T15:05:47;1.50;;;1.10;;
38611;SDS011;24368;52.156;20.788;2022-09-28T15:10:50;1.10;;;1.10;;
38611;SDS011;24368;52.156;20.788;2022-09-28T15:20:57;1.90;;;1.50;;
38611;SDS011;24368;52.156;20.788;2022-09-28T15:26:28;2.20;;;1.00;;
38611;SDS011;24368;52.156;20.788;2022-09-28T15:31:35;1.20;;;1.10;;
38611;SDS011;24368;52.156;20.788;2022-09-28T15:36:43;1.80;;;1.10;;
38611;SDS011;24368;52.156;20.788;2022-09-28T15:41:49;2.70;;;1.30;;
38611;SDS011;24368;52.156;20.788;2022-09-28T15:46:52;5.00;;;4.40;;
38611;SDS011;24368;52.156;20.788;2022-09-28T15:57:47;5.90;;;5.30;;
38611;SDS011;24368;52.156;20.788;2022-09-28T16:08:20;14.20;;;12.90;;
38611;SDS011;24368;52.156;20.788;2022-09-28T16:19:11;6.60;;;4.30;;
38611;SDS011;24368;52.156;20.788;2022-09-28T16:24:27;4.40;;;4.00;;
38611;SDS011;24368;52.156;20.788;2022-09-28T16:29:41;4.80;;;4.40;;
38611;SDS011;24368;52.156;20.788;2022-09-28T16:34:51;7.60;;;6.90;;
38611;SDS011;24368;52.156;20.788;2022-09-28T16:40:16;5.30;;;4.80;;
38611;SDS011;24368;52.156;20.788;2022-09-28T16:45:19;4.40;;;4.00;;
38611;SDS011;24368;52.156;20.788;2022-09-28T16:50:24;4.50;;;4.10;;
38611;SDS011;24368;52.156;20.788;2022-09-28T16:55:26;5.80;;;5.20;;
38611;SDS011;24368;52.156;20.788;2022-09-28T17:00:34;6.20;;;5.30;;
38611;SDS011;24368;52.156;20.788;2022-09-28T17:05:38;4.40;;;4.00;;
38611;SDS011;24368;52.156;20.788;2022-09-28T17:21:18;5.20;;;4.60;;
38611;SDS011;24368;52.156;20.788;2022-09-28T17:31:35;9.60;;;8.50;;
38611;SDS011;24368;52.156;20.788;2022-09-28T17:36:36;9.90;;;8.60;;
38611;SDS011;24368;52.156;20.788;2022-09-28T17:41:43;7.50;;;6.60;;
38611;SDS011;24368;52.156;20.788;2022-09-28T17:46:51;6.10;;;5.30;;
38611;SDS011;24368;52.156;20.788;2022-09-28T17:51:58;7.00;;;5.70;;
38611;SDS011;24368;52.156;20.788;2022-09-28T17:57:01;7.10;;;5.90;;
38611;SDS011;24368;52.156;20.788;2022-09-28T18:02:08;7.40;;;5.10;;
38611;SDS011;24368;52.156;20.788;2022-09-28T18:07:11;6.50;;;5.90;;
38611;SDS011;24368;52.156;20.788;2022-09-28T18:12:14;8.50;;;7.60;;
38611;SDS011;24368;52.156;20.788;2022-09-28T18:17:18;5.30;;;4.50;;
38611;SDS011;24368;52.156;20.788;2022-09-28T18:22:20;6.90;;;5.20;;
38611;SDS011;24368;52.156;20.788;2022-09-28T18:27:23;6.50;;;4.30;;
38611;SDS011;24368;52.156;20.788;2022-09-28T18:32:28;4.10;;;3.60;;
38611;SDS011;24368;52.156;20.788;2022-09-28T18:37:37;2.80;;;2.60;;
38611;SDS011;24368;52.156;20.788;2022-09-28T18:42:40;3.70;;;2.90;;
38611;SDS011;24368;52.156;20.788;2022-09-28T18:47:43;2.40;;;2.10;;
38611;SDS011;24368;52.156;20.788;2022-09-28T18:52:46;2.30;;;2.10;;
38611;SDS011;24368;52.156;20.788;2022-09-28T18:57:47;2.00;;;1.90;;
38611;SDS011;24368;52.156;20.788;2022-09-28T19:02:50;3.70;;;2.70;;
38611;SDS011;24368;52.156;20.788;2022-09-28T19:13:01;3.80;;;2.60;;
38611;SDS011;24368;52.156;20.788;2022-09-28T19:18:13;3.80;;;3.50;;
38611;SDS011;24368;52.156;20.788;2022-09-28T19:23:15;5.20;;;4.40;;
38611;SDS011;24368;52.156;20.788;2022-09-28T19:28:20;4.40;;;3.90;;
38611;SDS011;24368;52.156;20.788;2022-09-28T19:33:26;4.90;;;3.80;;
38611;SDS011;24368;52.156;20.788;2022-09-28T19:43:10;5.30;;;4.10;;
38611;SDS011;24368;52.156;20.788;2022-09-28T19:48:13;5.10;;;3.70;;
38611;SDS011;24368;52.156;20.788;2022-09-28T19:53:18;5.00;;;4.20;;
38611;SDS011;24368;52.156;20.788;2022-09-28T19:58:30;7.10;;;6.30;;
38611;SDS011;24368;52.156;20.788;2022-09-28T20:03:45;10.30;;;9.30;;
38611;SDS011;24368;52.156;20.788;2022-09-28T20:08:49;10.90;;;9.90;;
38611;SDS011;24368;52.156;20.788;2022-09-28T20:13:53;9.20;;;8.00;;
38611;SDS011;24368;52.156;20.788;2022-09-28T20:19:08;7.40;;;6.70;;
38611;SDS011;24368;52.156;20.788;2022-09-28T20:24:11;5.50;;;5.00;;
38611;SDS011;24368;52.156;20.788;2022-09-28T20:29:17;5.10;;;4.60;;
38611;SDS011;24368;52.156;20.788;2022-09-28T20:34:22;5.70;;;5.20;;
38611;SDS011;24368;52.156;20.788;2022-09-28T20:39:27;5.60;;;5.20;;
38611;SDS011;24368;52.156;20.788;2022-09-28T20:44:30;4.40;;;4.00;;
38611;SDS011;24368;52.156;20.788;2022-09-28T20:49:35;4.60;;;4.20;;
38611;SDS011;24368;52.156;20.788;2022-09-28T20:54:37;5.80;;;5.10;;
38611;SDS011;24368;52.156;20.788;2022-09-28T20:59:42;4.70;;;4.30;;
38611;SDS011;24368;52.156;20.788;2022-09-28T21:04:45;4.00;;;3.50;;
38611;SDS011;24368;52.156;20.788;2022-09-28T21:09:51;3.50;;;3.20;;
38611;SDS011;24368;52.156;20.788;2022-09-28T21:15:02;5.50;;;3.80;;
38611;SDS011;24368;52.156;20.788;2022-09-28T21:20:04;4.20;;;3.80;;
38611;SDS011;24368;52.156;20.788;2022-09-28T21:25:08;3.80;;;3.50;;
38611;SDS011;24368;52.156;20.788;2022-09-28T21:30:12;3.60;;;3.30;;
38611;SDS011;24368;52.156;20.788;2022-09-28T21:35:21;3.70;;;3.40;;
38611;SDS011;24368;52.156;20.788;2022-09-28T21:40:23;4.00;;;3.60;;
38611;SDS011;24368;52.156;20.788;2022-09-28T21:45:26;4.40;;;3.80;;
38611;SDS011;24368;52.156;20.788;2022-09-28T21:50:34;4.90;;;4.10;;
38611;SDS011;24368;52.156;20.788;2022-09-28T21:55:39;4.90;;;4.20;;
38611;SDS011;24368;52.156;20.788;2022-09-28T22:01:01;5.00;;;4.30;;
38611;SDS011;24368;52.156;20.788;2022-09-28T22:06:09;7.20;;;5.60;;
38611;SDS011;24368;52.156;20.788;2022-09-28T22:11:13;6.10;;;5.50;;
38611;SDS011;24368;52.156;20.788;2022-09-28T22:16:23;5.80;;;5.00;;
38611;SDS011;24368;52.156;20.788;2022-09-28T22:21:31;5.50;;;4.90;;
38611;SDS011;24368;52.156;20.788;2022-09-28T22:26:54;5.20;;;4.80;;
38611;SDS011;24368;52.156;20.788;2022-09-28T22:32:13;6.00;;;4.80;;
38611;SDS011;24368;52.156;20.788;2022-09-28T22:37:14;5.60;;;5.00;;
38611;SDS011;24368;52.156;20.788;2022-09-28T22:42:24;5.90;;;5.40;;
38611;SDS011;24368;52.156;20.788;2022-09-28T22:47:28;6.10;;;5.10;;
38611;SDS011;24368;52.156;20.788;2022-09-28T22:52:35;5.90;;;5.30;;
38611;SDS011;24368;52.156;20.788;2022-09-28T22:57:39;6.50;;;5.80;;
38611;SDS011;24368;52.156;20.788;2022-09-28T23:02:43;6.50;;;5.90;;
38611;SDS011;24368;52.156;20.788;2022-09-28T23:12:58;6.00;;;5.50;;
38611;SDS011;24368;52.156;20.788;2022-09-28T23:18:00;5.90;;;5.40;;
38611;SDS011;24368;52.156;20.788;2022-09-28T23:23:04;5.90;;;5.30;;
38611;SDS011;24368;52.156;20.788;2022-09-28T23:28:06;5.60;;;5.20;;
38611;SDS011;24368;52.156;20.788;2022-09-28T23:33:12;6.70;;;6.10;;
38611;SDS011;24368;52.156;20.788;2022-09-28T23:38:16;6.80;;;6.20;;
38611;SDS011;24368;52.156;20.788;2022-09-28T23:43:20;8.30;;;6.50;;
38611;SDS011;24368;52.156;20.788;2022-09-28T23:48:22;6.30;;;5.70;;
38611;SDS011;24368;52.156;20.788;2022-09-28T23:53:24;5.80;;;5.30;;
38611;SDS011;24368;52.156;20.788;2022-09-28T23:58:31;5.60;;;5.10;;
